Time;durP1;ratioP1;P1;durP2;ratioP2;P2;SDS_P1;SDS_P2;PMS_P1;PMS_P2;Temp;Humidity;BMP_temperature;BMP_pressure;BME280_temperature;BME280_humidity;BME280_pressure;Samples;Min_cycle;Max_cycle;Signal;HPM_P1;HPM_P2
2024/01/05 00:00:49;;;;;;;43.13;24.05;;;230.60;2252.80;;;;;;5070334;28;20029;-61
2024/01/05 00:03:15;;;;;;;49.90;30.23;;;230.50;2252.80;;;;;;5069932;28;20024;-60
2024/01/05 00:05:41;;;;;;;94.55;50.17;;;230.50;2252.80;;;;;;5070138;28;20422;-60
2024/01/05 00:08:07;;;;;;;30.30;17.95;;;230.50;2252.80;;;;;;5070311;28;20115;-61
2024/01/05 00:10:32;;;;;;;50.65;29.90;;;230.50;2252.80;;;;;;5069922;28;20158;-61
2024/01/05 00:12:58;;;;;;;113.65;64.40;;;205.70;2252.80;;;;;;5069897;28;20017;-61
2024/01/05 00:15:24;;;;;;;76.53;46.67;;;230.40;2252.80;;;;;;5069986;28;20081;-61
2024/01/05 00:17:50;;;;;;;67.20;35.88;;;205.70;2252.80;;;;;;5069971;28;20533;-61
2024/01/05 00:20:16;;;;;;;56.00;24.00;;;205.70;2252.80;;;;;;5069706;28;20025;-61
2024/01/05 00:22:41;;;;;;;227.70;121.15;;;205.60;2252.80;;;;;;5069586;28;20447;-61
2024/01/05 00:25:07;;;;;;;69.18;45.05;;;205.60;2252.80;;;;;;5069841;28;20119;-61
2024/01/05 00:27:33;;;;;;;41.70;23.98;;;205.60;2252.80;;;;;;5069984;28;20086;-61
2024/01/05 00:29:59;;;;;;;21.58;13.55;;;205.60;2252.80;;;;;;5069629;28;20506;-61
2024/01/05 00:32:25;;;;;;;28.05;16.23;;;205.60;2252.80;;;;;;5073056;28;20058;-60
2024/01/05 00:34:50;;;;;;;60.05;31.02;;;205.50;2252.80;;;;;;5069506;28;20024;-61
2024/01/05 00:37:16;;;;;;;64.90;37.97;;;205.50;2252.80;;;;;;5069153;28;20036;-61
2024/01/05 00:39:42;;;;;;;35.92;20.33;;;205.20;2252.80;;;;;;5076890;28;20117;-60
2024/01/05 00:42:08;;;;;;;38.15;24.58;;;205.50;2252.80;;;;;;5088985;28;20035;-62
2024/01/05 00:44:34;;;;;;;39.08;21.58;;;205.40;2252.80;;;;;;5088638;28;20459;-60
2024/01/05 00:47:00;;;;;;;83.07;45.85;;;205.30;2252.80;;;;;;5087745;28;20039;-61
2024/01/05 00:49:25;;;;;;;30.08;18.13;;;205.40;2252.80;;;;;;5088335;28;20026;-61
2024/01/05 00:51:51;;;;;;;27.48;18.40;;;205.30;2252.80;;;;;;5067678;28;20033;-62
2024/01/05 00:54:17;;;;;;;42.70;23.80;;;205.20;2252.80;;;;;;5064326;28;20021;-60
2024/01/05 00:56:43;;;;;;;94.22;49.33;;;205.20;2252.80;;;;;;5057400;28;20024;-62
2024/01/05 00:59:08;;;;;;;59.13;33.13;;;205.20;2252.80;;;;;;5074254;28;20021;-61
2024/01/05 01:01:34;;;;;;;62.35;37.10;;;205.10;2252.80;;;;;;5085855;28;20134;-61
2024/01/05 01:04:00;;;;;;;34.13;20.27;;;205.00;2252.80;;;;;;5066057;28;20025;-61
2024/01/05 01:06:25;;;;;;;30.48;17.77;;;205.30;2252.80;;;;;;5084518;28;20060;-61
2024/01/05 01:08:51;;;;;;;29.63;15.82;;;204.90;2252.80;;;;;;5064835;28;20108;-62
2024/01/05 01:11:17;;;;;;;58.95;30.38;;;204.90;2252.80;;;;;;5074599;28;20029;-61
2024/01/05 01:13:44;;;;;;;56.45;31.67;;;204.90;2252.80;;;;;;5073678;28;20528;-61
2024/01/05 01:16:11;;;;;;;13.20;7.50;;;204.90;2252.80;;;;;;5087711;28;20028;-61
2024/01/05 01:18:37;;;;;;;20.42;10.70;;;204.90;2252.80;;;;;;5087800;28;20099;-61
2024/01/05 01:21:03;;;;;;;36.72;18.25;;;204.90;2252.80;;;;;;5086022;28;20064;-60
2024/01/05 01:23:29;;;;;;;44.08;24.67;;;204.90;2252.80;;;;;;5085880;28;20028;-61
2024/01/05 01:25:55;;;;;;;33.97;20.42;;;204.80;2252.80;;;;;;5084926;28;20039;-61
2024/01/05 01:28:20;;;;;;;39.53;20.52;;;204.80;2252.80;;;;;;5085321;28;20021;-60
2024/01/05 01:30:46;;;;;;;51.15;31.48;;;204.80;2252.80;;;;;;5068335;28;20040;-61
2024/01/05 01:33:12;;;;;;;55.70;29.75;;;180.10;2252.80;;;;;;5069007;28;20050;-62
2024/01/05 01:35:38;;;;;;;26.73;12.95;;;180.10;2252.80;;;;;;5070251;28;20040;-61
2024/01/05 01:38:05;;;;;;;69.05;35.83;;;204.80;2252.80;;;;;;5069051;28;20028;-61
2024/01/05 01:40:31;;;;;;;44.95;22.83;;;180.10;2252.80;;;;;;5068680;28;20048;-61
2024/01/05 01:42:57;;;;;;;35.55;18.00;;;180.10;2252.80;;;;;;5069314;28;20093;-61
2024/01/05 01:45:23;;;;;;;47.65;23.45;;;180.10;2252.80;;;;;;5068582;28;20036;-62
2024/01/05 01:47:50;;;;;;;29.20;15.20;;;180.00;2252.80;;;;;;5069541;28;20374;-61
2024/01/05 01:50:16;;;;;;;58.35;29.67;;;180.00;2252.80;;;;;;5069121;28;20111;-61
2024/01/05 01:52:45;;;;;;;86.63;49.80;;;180.00;2252.80;;;;;;5071559;28;20491;-62
2024/01/05 01:55:13;;;;;;;85.30;43.70;;;179.90;2252.80;;;;;;5069681;28;20032;-62
2024/01/05 01:57:40;;;;;;;49.72;24.30;;;179.90;2252.80;;;;;;5070622;28;20394;-63
2024/01/05 02:00:07;;;;;;;39.58;22.10;;;179.90;2252.80;;;;;;5069140;28;20028;-61
2024/01/05 02:02:34;;;;;;;22.70;14.57;;;179.90;2252.80;;;;;;5069398;28;20028;-62
2024/01/05 02:05:00;;;;;;;16.38;9.65;;;179.90;2252.80;;;;;;5068902;28;20036;-60
2024/01/05 02:07:26;;;;;;;34.17;17.10;;;179.90;2252.80;;;;;;5068751;28;20036;-61
2024/01/05 02:09:52;;;;;;;45.92;22.00;;;179.80;2252.80;;;;;;5068947;28;20185;-61
2024/01/05 02:12:18;;;;;;;16.63;9.88;;;179.80;2252.80;;;;;;5069011;28;20382;-62
2024/01/05 02:14:44;;;;;;;42.75;21.27;;;179.90;2252.80;;;;;;5068548;28;20021;-62
2024/01/05 02:17:29;;;;;;;18.75;9.75;;;179.90;2252.80;;;;;;5069027;28;20471;-61
2024/01/05 02:19:55;;;;;;;22.45;14.25;;;180.00;2252.80;;;;;;5058071;28;20104;-61
2024/01/05 02:22:22;;;;;;;20.52;11.68;;;180.00;2252.80;;;;;;5071315;28;20044;-61
2024/01/05 02:24:49;;;;;;;63.63;36.58;;;179.90;2252.80;;;;;;5072592;28;20059;-62
2024/01/05 02:27:15;;;;;;;65.47;35.38;;;179.90;2252.80;;;;;;5072270;28;20024;-59
2024/01/05 02:29:41;;;;;;;164.60;80.80;;;179.80;2252.80;;;;;;5072105;28;20524;-63
2024/01/05 02:32:07;;;;;;;210.73;95.38;;;179.80;2252.80;;;;;;5072807;28;20108;-61
2024/01/05 02:34:33;;;;;;;146.18;64.50;;;179.70;2252.80;;;;;;5072240;28;20527;-61
2024/01/05 02:36:59;;;;;;;25.17;11.02;;;179.70;2252.80;;;;;;5071997;28;20107;-62
2024/01/05 02:39:25;;;;;;;74.43;35.22;;;179.70;2252.80;;;;;;5071890;28;20049;-61
2024/01/05 02:41:50;;;;;;;69.07;37.85;;;179.70;2252.80;;;;;;5071828;28;20024;-62
2024/01/05 02:44:16;;;;;;;75.70;40.25;;;179.60;2252.80;;;;;;5072434;28;20050;-61
2024/01/05 02:46:42;;;;;;;23.45;12.10;;;179.60;2252.80;;;;;;5071915;28;20494;-62
2024/01/05 02:49:08;;;;;;;15.43;9.50;;;179.50;2252.80;;;;;;5072259;28;20027;-62
2024/01/05 02:51:33;;;;;;;25.15;17.63;;;179.40;2252.80;;;;;;5071783;28;20031;-61
2024/01/05 02:53:59;;;;;;;24.77;22.38;;;179.30;2252.80;;;;;;5072081;28;20033;-62
2024/01/05 02:56:25;;;;;;;32.05;20.27;;;179.40;2252.80;;;;;;5071553;28;20036;-62
2024/01/05 02:58:52;;;;;;;28.27;18.92;;;179.30;2252.80;;;;;;5071667;28;20013;-63
2024/01/05 03:01:18;;;;;;;15.65;9.70;;;179.30;2252.80;;;;;;5072016;28;20115;-61
2024/01/05 03:03:47;;;;;;;20.95;13.63;;;179.20;2252.80;;;;;;5071947;28;20071;-61
2024/01/05 03:06:16;;;;;;;24.58;16.42;;;179.30;2252.80;;;;;;5071307;28;20043;-62
2024/01/05 03:08:46;;;;;;;35.90;21.08;;;179.20;2252.80;;;;;;5071405;28;20036;-62
2024/01/05 03:11:12;;;;;;;19.95;11.82;;;179.20;2252.80;;;;;;5071412;28;20082;-61
2024/01/05 03:13:38;;;;;;;27.25;14.70;;;154.50;2252.80;;;;;;5071488;28;20048;-62
2024/01/05 03:16:04;;;;;;;40.38;22.10;;;154.40;2252.80;;;;;;5071577;28;20056;-61
2024/01/05 03:18:30;;;;;;;11.68;6.28;;;154.40;2252.80;;;;;;5071700;28;20029;-60
2024/01/05 03:20:56;;;;;;;25.63;16.52;;;154.40;2252.80;;;;;;5071632;28;20105;-61
2024/01/05 03:23:22;;;;;;;15.98;9.35;;;154.40;2252.80;;;;;;5071253;28;20470;-60
2024/01/05 03:25:48;;;;;;;17.35;8.98;;;154.50;2252.80;;;;;;5071466;28;20036;-61
2024/01/05 03:28:14;;;;;;;95.45;46.95;;;154.50;2252.80;;;;;;5071294;28;20521;-62
2024/01/05 03:30:42;;;;;;;80.32;43.17;;;154.40;2252.80;;;;;;5071208;28;20081;-60
2024/01/05 03:33:08;;;;;;;15.02;11.13;;;154.40;2252.80;;;;;;5070610;28;20479;-61
2024/01/05 03:35:33;;;;;;;9.52;7.45;;;154.40;2252.80;;;;;;5070799;28;20526;-60
2024/01/05 03:37:59;;;;;;;20.67;11.98;;;154.40;2252.80;;;;;;5071192;28;20115;-60
2024/01/05 03:40:25;;;;;;;14.88;8.55;;;179.20;2252.80;;;;;;5070857;28;20071;-61
2024/01/05 03:42:51;;;;;;;10.10;6.90;;;179.20;2252.80;;;;;;5070656;28;20024;-62
2024/01/05 03:45:16;;;;;;;14.50;9.88;;;179.20;2252.80;;;;;;5070916;28;20040;-61
2024/01/05 03:47:42;;;;;;;35.75;19.80;;;154.50;2252.80;;;;;;5070934;28;20019;-61
2024/01/05 03:50:08;;;;;;;43.33;23.67;;;154.50;2252.80;;;;;;5070654;28;20028;-62
2024/01/05 03:52:34;;;;;;;36.53;17.48;;;154.50;2252.80;;;;;;5071022;28;20141;-61
2024/01/05 03:55:01;;;;;;;22.42;11.85;;;154.50;2252.80;;;;;;5070786;28;20107;-61
2024/01/05 03:57:27;;;;;;;19.05;10.70;;;154.50;2252.80;;;;;;5071188;28;20025;-62
2024/01/05 03:59:53;;;;;;;14.75;8.45;;;154.50;2252.80;;;;;;5070287;28;20024;-62
2024/01/05 04:02:19;;;;;;;15.02;7.40;;;154.50;2252.80;;;;;;5070814;28;20032;-61
2024/01/05 04:04:45;;;;;;;11.93;6.15;;;154.50;2252.80;;;;;;5070284;28;20021;-61
2024/01/05 04:07:11;;;;;;;46.30;31.33;;;154.50;2252.80;;;;;;5070390;28;20048;-62
2024/01/05 04:09:37;;;;;;;14.50;9.15;;;179.20;2252.80;;;;;;5070643;28;20025;-61
2024/01/05 04:12:03;;;;;;;15.18;10.85;;;179.30;2252.80;;;;;;5070210;28;20055;-62
2024/01/05 04:14:28;;;;;;;11.43;7.78;;;154.50;2252.80;;;;;;5070286;28;20028;-60
2024/01/05 04:16:54;;;;;;;16.58;11.07;;;154.50;2252.80;;;;;;5070314;28;20486;-61
2024/01/05 04:19:20;;;;;;;9.65;6.05;;;154.40;2252.80;;;;;;5070170;28;20108;-62
2024/01/05 04:21:46;;;;;;;9.85;5.32;;;154.30;2252.80;;;;;;5070254;28;20020;-61
2024/01/05 04:24:12;;;;;;;7.35;4.35;;;154.30;2252.80;;;;;;5069975;28;20031;-62
2024/01/05 04:26:38;;;;;;;10.13;5.28;;;154.20;2252.80;;;;;;5070101;28;20037;-62
2024/01/05 04:29:03;;;;;;;5.47;3.42;;;154.10;2252.80;;;;;;5070252;28;20102;-60
2024/01/05 04:31:29;;;;;;;14.18;8.32;;;154.20;2252.80;;;;;;5070540;28;20032;-61
2024/01/05 04:33:55;;;;;;;11.50;8.18;;;154.10;2252.80;;;;;;5056469;28;20121;-61
2024/01/05 04:36:21;;;;;;;6.35;3.90;;;154.10;2252.80;;;;;;5069921;28;20047;-62
2024/01/05 04:38:47;;;;;;;6.28;3.90;;;154.10;2252.80;;;;;;5069615;28;20020;-61
2024/01/05 04:41:15;;;;;;;7.43;4.45;;;154.10;2252.80;;;;;;5069766;28;20039;-60
2024/01/05 04:43:43;;;;;;;7.28;5.13;;;154.20;2252.80;;;;;;5069782;28;20062;-62
2024/01/05 04:46:09;;;;;;;10.25;4.03;;;154.20;2252.80;;;;;;5069977;28;20036;-65
2024/01/05 04:48:35;;;;;;;5.82;2.70;;;154.30;2252.80;;;;;;5072024;28;20425;-62
2024/01/05 04:51:01;;;;;;;92.35;50.05;;;154.30;2252.80;;;;;;5072639;28;20035;-63
2024/01/05 04:53:27;;;;;;;18.33;8.75;;;154.40;2252.80;;;;;;5072690;28;20020;-62
2024/01/05 04:55:52;;;;;;;10.68;6.70;;;154.40;2252.80;;;;;;5070889;28;20043;-61
2024/01/05 04:58:18;;;;;;;7.70;3.75;;;154.30;2252.80;;;;;;5069583;28;20451;-61
2024/01/05 05:00:44;;;;;;;6.25;4.35;;;154.20;2252.80;;;;;;5069785;28;20115;-61
2024/01/05 05:03:10;;;;;;;10.93;7.47;;;154.10;2252.80;;;;;;5069578;28;20042;-62
2024/01/05 05:05:37;;;;;;;13.02;7.45;;;154.00;2252.80;;;;;;5069595;28;20028;-60
2024/01/05 05:08:03;;;;;;;9.90;5.65;;;154.00;2252.80;;;;;;5069578;28;20103;-62
2024/01/05 05:10:28;;;;;;;13.82;8.02;;;153.80;2252.80;;;;;;5076086;28;20032;-62
2024/01/05 05:12:54;;;;;;;12.95;8.52;;;153.70;2252.80;;;;;;5069394;28;20028;-61
2024/01/05 05:15:20;;;;;;;11.07;7.75;;;153.70;2252.80;;;;;;5069147;28;20443;-62
2024/01/05 05:17:46;;;;;;;18.42;13.48;;;153.70;2252.80;;;;;;5069368;28;20039;-60
2024/01/05 05:20:12;;;;;;;28.52;17.33;;;153.60;2252.80;;;;;;5068828;28;20020;-62
2024/01/05 05:22:38;;;;;;;20.10;12.43;;;153.60;2252.80;;;;;;5069512;28;20032;-62
2024/01/05 05:25:05;;;;;;;11.02;6.75;;;153.60;2252.80;;;;;;5069058;28;20024;-61
2024/01/05 05:27:31;;;;;;;30.33;20.00;;;153.70;2252.80;;;;;;5069183;28;20390;-61
2024/01/05 05:29:57;;;;;;;11.32;6.22;;;153.70;2252.80;;;;;;5069527;28;20028;-62
2024/01/05 05:32:23;;;;;;;19.73;11.30;;;153.70;2252.80;;;;;;5069411;28;20032;-62
2024/01/05 05:34:50;;;;;;;51.85;35.05;;;153.70;2252.80;;;;;;5069437;28;20100;-61
2024/01/05 05:37:16;;;;;;;25.33;16.70;;;128.90;2252.80;;;;;;5069262;28;20387;-62
2024/01/05 05:39:42;;;;;;;15.65;8.63;;;128.90;2252.80;;;;;;5068856;28;20049;-61
2024/01/05 05:42:08;;;;;;;40.88;23.65;;;128.80;2252.80;;;;;;5076497;28;20028;-63
2024/01/05 05:44:34;;;;;;;23.15;13.82;;;128.70;2252.80;;;;;;5069118;28;20133;-62
2024/01/05 05:46:59;;;;;;;135.77;99.97;;;128.70;2252.80;;;;;;5068865;28;20037;-62
2024/01/05 05:49:26;;;;;;;25.67;17.20;;;128.80;2252.80;;;;;;5069000;28;20021;-62
2024/01/05 05:51:51;;;;;;;29.45;21.08;;;128.70;2252.80;;;;;;5068966;28;20028;-62
2024/01/05 05:54:17;;;;;;;18.85;13.52;;;;;;;;;;5069320;28;20028;-61
2024/01/05 05:56:43;;;;;;;21.92;12.48;;;128.80;2252.80;;;;;;5070988;28;20344;-62
2024/01/05 05:59:09;;;;;;;19.65;12.13;;;128.60;2252.80;;;;;;5073027;28;20024;-62
2024/01/05 06:01:35;;;;;;;15.40;8.95;;;128.60;2252.80;;;;;;5072836;28;20040;-61
2024/01/05 06:04:01;;;;;;;30.38;17.33;;;128.80;2252.80;;;;;;5073158;28;20182;-60
2024/01/05 06:06:26;;;;;;;30.67;16.70;;;128.80;2252.80;;;;;;5072626;28;20123;-62
2024/01/05 06:08:52;;;;;;;21.67;13.38;;;128.80;2252.80;;;;;;5072674;28;20031;-62
2024/01/05 06:11:19;;;;;;;19.85;12.68;;;128.90;2252.80;;;;;;5072691;28;20517;-61
2024/01/05 06:13:46;;;;;;;14.57;8.35;;;128.90;2252.80;;;;;;5072782;28;20108;-62
2024/01/05 06:16:12;;;;;;;11.20;6.45;;;128.90;2252.80;;;;;;5072557;28;20467;-62
2024/01/05 06:18:39;;;;;;;8.93;4.95;;;128.90;2252.80;;;;;;5072510;28;20028;-62
2024/01/05 06:21:05;;;;;;;12.75;8.90;;;153.60;2252.80;;;;;;5072347;28;20025;-62
2024/01/05 06:23:31;;;;;;;26.80;16.42;;;153.70;2252.80;;;;;;5072390;28;20027;-61
2024/01/05 06:25:57;;;;;;;55.15;35.72;;;153.70;2252.80;;;;;;5072232;28;20033;-61
2024/01/05 06:28:23;;;;;;;53.92;35.45;;;153.80;2252.80;;;;;;5072317;28;20032;-62
2024/01/05 06:30:49;;;;;;;98.95;55.55;;;153.90;2252.80;;;;;;5072266;28;20110;-60
2024/01/05 06:33:15;;;;;;;109.20;57.50;;;153.90;2252.80;;;;;;5072162;28;20021;-60
2024/01/05 06:35:41;;;;;;;78.57;39.72;;;154.00;2252.80;;;;;;5071970;28;20400;-62
2024/01/05 06:38:07;;;;;;;31.33;17.05;;;153.90;2252.80;;;;;;5072293;28;20514;-62
2024/01/05 06:40:33;;;;;;;28.60;16.02;;;153.90;2252.80;;;;;;5071848;28;20048;-61
2024/01/05 06:43:00;;;;;;;18.50;10.07;;;154.00;2252.80;;;;;;5071959;28;20059;-61
2024/01/05 06:45:25;;;;;;;29.60;18.02;;;154.00;2252.80;;;;;;5071866;28;20033;-62
2024/01/05 06:47:51;;;;;;;94.10;57.13;;;154.00;2252.80;;;;;;5072001;28;20024;-62
2024/01/05 06:50:17;;;;;;;191.13;126.65;;;154.10;2252.80;;;;;;5071861;28;20111;-61
2024/01/05 06:52:43;;;;;;;145.30;91.97;;;154.40;2252.80;;;;;;5071761;28;20047;-62
2024/01/05 06:55:09;;;;;;;107.90;63.90;;;154.50;2252.80;;;;;;5071696;28;20025;-62
2024/01/05 06:57:36;;;;;;;369.80;255.05;;;179.20;2252.80;;;;;;5079131;28;20052;-61
2024/01/05 07:00:10;;;;;;;221.63;154.48;;;154.50;2252.80;;;;;;5072188;28;20024;-62
2024/01/05 07:02:37;;;;;;;92.65;59.40;;;154.50;2252.80;;;;;;5058687;28;20025;-61
2024/01/05 07:05:03;;;;;;;55.53;44.88;;;154.50;2252.80;;;;;;5091222;28;20112;-61
2024/01/05 07:07:30;;;;;;;36.22;27.00;;;179.20;2252.80;;;;;;5076179;28;20033;-61
2024/01/05 07:09:56;;;;;;;65.28;48.10;;;179.30;2252.80;;;;;;5066885;28;20024;-60
2024/01/05 07:12:27;;;;;;;73.18;47.70;;;179.40;2252.80;;;;;;5090506;28;20374;-61
2024/01/05 07:14:53;;;;;;;56.92;36.28;;;179.60;2252.80;;;;;;5083151;28;20405;-61
2024/01/05 07:17:19;;;;;;;37.03;23.10;;;179.70;2252.80;;;;;;5071468;28;20025;-62
2024/01/05 07:19:45;;;;;;;35.88;24.42;;;179.80;2252.80;;;;;;5071407;28;20035;-61
2024/01/05 07:22:11;;;;;;;395.60;281.98;;;179.80;2252.80;;;;;;5071406;28;20175;-63
2024/01/05 07:24:38;;;;;;;274.60;197.13;;;179.80;2252.80;;;;;;5071580;28;20031;-62
2024/01/05 07:27:09;;;;;;;681.10;481.70;;;179.80;2252.80;;;;;;5071131;28;20037;-61
2024/01/05 07:29:34;;;;;;;500.90;347.88;;;179.70;2252.80;;;;;;5071119;28;20027;-62
2024/01/05 07:32:01;;;;;;;408.65;278.65;;;179.90;2252.80;;;;;;5071230;28;20534;-61
2024/01/05 07:34:27;;;;;;;169.98;122.55;;;180.00;2252.80;;;;;;5071250;28;20430;-62
2024/01/05 07:36:53;;;;;;;48.95;36.42;;;180.00;2252.80;;;;;;5070633;28;20032;-62
2024/01/05 07:39:19;;;;;;;43.38;39.13;;;180.10;2252.80;;;;;;5071579;28;20052;-62
2024/01/05 07:41:45;;;;;;;26.60;20.40;;;180.00;2252.80;;;;;;5061708;28;20097;-61
2024/01/05 07:44:11;;;;;;;25.55;15.05;;;180.10;2252.80;;;;;;5080606;28;20494;-62
2024/01/05 07:46:43;;;;;;;29.23;23.60;;;204.80;2252.80;;;;;;5070824;28;20037;-62
2024/01/05 07:49:09;;;;;;;195.02;175.73;;;204.80;2252.80;;;;;;5069606;28;20103;-62
2024/01/05 07:51:35;;;;;;;88.63;80.25;;;204.90;2252.80;;;;;;5070129;28;20108;-61
2024/01/05 07:54:01;;;;;;;59.40;52.97;;;205.00;2252.80;;;;;;5070127;28;20028;-61
2024/01/05 07:56:27;;;;;;;26.33;18.90;;;205.00;2252.80;;;;;;5070039;28;20538;-61
2024/01/05 07:58:53;;;;;;;15.25;10.43;;;205.20;2252.80;;;;;;5069671;28;20027;-60
2024/01/05 08:01:20;;;;;;;16.40;11.80;;;205.30;2252.80;;;;;;5069618;28;20139;-62
2024/01/05 08:03:47;;;;;;;23.33;16.15;;;205.30;2252.80;;;;;;5070282;28;20119;-62
2024/01/05 08:06:17;;;;;;;28.33;21.02;;;205.20;2252.80;;;;;;5069498;28;20035;-61
2024/01/05 08:08:45;;;;;;;21.10;13.60;;;205.30;2252.80;;;;;;5069688;28;20025;-62
2024/01/05 08:11:11;;;;;;;17.15;12.43;;;205.50;2252.80;;;;;;5069419;28;20073;-61
2024/01/05 08:13:37;;;;;;;13.88;9.77;;;205.60;2252.80;;;;;;5069837;28;20029;-61
2024/01/05 08:16:03;;;;;;;55.78;49.80;;;230.40;2252.80;;;;;;5069162;28;20436;-61
2024/01/05 08:18:29;;;;;;;118.90;108.25;;;230.40;2252.80;;;;;;5069898;28;20070;-61
2024/01/05 08:20:55;;;;;;;91.53;77.43;;;230.50;2252.80;;;;;;5069052;28;20467;-62
2024/01/05 08:23:20;;;;;;;146.95;105.45;;;230.70;2252.80;;;;;;5069747;28;20684;-62
2024/01/05 08:25:47;;;;;;;202.07;146.23;;;231.00;2252.80;;;;;;5068829;28;20124;-62
2024/01/05 08:28:13;;;;;;;290.48;215.27;;;231.10;2252.80;;;;;;5068862;28;20474;-62
2024/01/05 08:30:39;;;;;;;334.75;251.95;;;231.30;2252.80;;;;;;5068822;28;20163;-62
2024/01/05 08:33:05;;;;;;;260.77;193.73;;;256.30;2252.80;;;;;;5069156;28;20029;-61
2024/01/05 08:35:31;;;;;;;218.32;165.32;;;256.50;2252.80;;;;;;5068775;28;20028;-62
2024/01/05 08:37:57;;;;;;;216.52;158.63;;;256.60;2252.80;;;;;;5068720;28;20017;-61
2024/01/05 08:40:26;;;;;;;257.27;190.02;;;256.80;2252.80;;;;;;5068651;28;20052;-62
2024/01/05 08:42:53;;;;;;;288.58;213.80;;;256.50;2252.80;;;;;;5068736;28;20161;-62
2024/01/05 08:45:19;;;;;;;286.88;218.18;;;256.40;2252.80;;;;;;5068802;28;20020;-61
2024/01/05 08:47:45;;;;;;;317.75;237.13;;;231.30;2252.80;;;;;;5079317;28;20032;-74
2024/01/05 08:50:11;;;;;;;279.40;218.35;;;256.40;2252.80;;;;;;5069700;28;20020;-72
2024/01/05 08:52:38;;;;;;;297.45;233.98;;;282.20;2278.40;;;;;;5069458;28;20360;-72
2024/01/05 08:55:04;;;;;;;255.20;208.88;;;;;;;;;;5068696;28;20024;-70
2024/01/05 08:57:30;;;;;;;251.82;206.82;;;333.10;2329.60;;;;;;5060090;28;20024;-72
2024/01/05 08:59:56;;;;;;;227.98;191.23;;;332.80;2329.60;;;;;;5063446;28;20024;-71
2024/01/05 09:02:22;;;;;;;195.25;157.13;;;333.20;2329.60;;;;;;5059686;28;20025;-71
2024/01/05 09:04:48;;;;;;;194.10;164.10;;;333.60;2278.40;;;;;;5068807;28;20024;-70
2024/01/05 09:07:14;;;;;;;156.40;131.18;;;333.10;2304.00;;;;;;5064840;28;20142;-72
2024/01/05 09:09:40;;;;;;;153.07;125.30;;;358.50;2252.80;;;;;;5075029;28;20036;-72
2024/01/05 09:12:07;;;;;;;132.45;107.85;;;358.90;2150.40;;;;;;5074652;28;20459;-71
2024/01/05 09:14:33;;;;;;;217.90;183.10;;;384.70;2073.60;;;;;;5068738;28;20023;-71
2024/01/05 09:16:59;;;;;;;277.23;233.95;;;410.20;1996.80;;;;;;5066179;28;20048;-70
2024/01/05 09:19:25;;;;;;;304.65;256.35;;;410.30;1971.20;;;;;;5033745;28;20071;-71
2024/01/05 09:21:51;;;;;;;284.67;247.45;;;409.70;1971.20;;;;;;5054656;28;20561;-72
2024/01/05 09:24:16;;;;;;;285.00;239.45;;;410.20;1971.20;;;;;;5058842;28;20475;-71
2024/01/05 09:26:43;;;;;;;231.32;194.07;;;435.40;1894.40;;;;;;5068214;28;20043;-71
2024/01/05 09:29:09;;;;;;;250.48;208.95;;;435.30;1894.40;;;;;;5081544;28;20032;-72
2024/01/05 09:31:35;;;;;;;271.85;225.55;;;435.80;1843.20;;;;;;5067574;28;20021;-71
2024/01/05 09:34:01;;;;;;;308.30;257.13;;;435.80;1843.20;;;;;;5068433;28;20017;-73
2024/01/05 09:36:26;;;;;;;278.33;231.02;;;410.50;1894.40;;;;;;5068461;28;20030;-72
2024/01/05 09:38:52;;;;;;;281.42;236.98;;;384.80;1945.60;;;;;;5061103;28;20031;-71
2024/01/05 09:41:18;;;;;;;301.10;244.93;;;384.30;2022.40;;;;;;5075418;28;20033;-71
2024/01/05 09:43:48;;;;;;;281.50;235.57;;;358.80;2073.60;;;;;;5066905;28;20026;-71
2024/01/05 09:46:15;;;;;;;280.05;224.75;;;333.30;2176.00;;;;;;5056150;28;20041;-71
2024/01/05 09:48:40;;;;;;;299.90;236.07;;;332.80;2201.60;;;;;;5068416;28;20024;-72
2024/01/05 09:51:07;;;;;;;250.50;208.18;;;308.10;2227.20;;;;;;5084427;28;20035;-71
2024/01/05 09:53:33;;;;;;;253.77;187.35;;;333.10;2227.20;;;;;;5076878;28;20516;-71
2024/01/05 09:56:00;;;;;;;231.98;170.40;;;332.90;2278.40;;;;;;5080042;28;20040;-71
2024/01/05 09:58:27;;;;;;;210.02;166.13;;;333.10;2252.80;;;;;;5070866;28;20021;-71
2024/01/05 10:00:54;;;;;;;213.07;168.45;;;333.20;2227.20;;;;;;5079204;28;20482;-72
2024/01/05 10:03:23;;;;;;;225.25;169.77;;;332.90;2278.40;;;;;;5084196;28;20066;-71
2024/01/05 10:05:53;;;;;;;229.00;172.10;;;333.00;2252.80;;;;;;5083363;28;20402;-72
2024/01/05 10:08:21;;;;;;;146.55;114.75;;;333.20;2227.20;;;;;;5072788;28;20489;-72
2024/01/05 10:10:49;;;;;;;187.10;145.30;;;333.40;2150.40;;;;;;5082320;28;20036;-72
2024/01/05 10:13:16;;;;;;;161.98;121.85;;;333.30;2176.00;;;;;;5056030;28;20440;-70
2024/01/05 10:16:17;;;;;;;163.57;123.07;;;333.30;2150.40;;;;;;5058751;28;20024;-71
2024/01/05 10:18:42;;;;;;;148.57;113.00;;;333.70;2176.00;;;;;;4975960;28;20062;-72
2024/01/05 10:21:11;;;;;;;123.30;88.65;;;333.70;2150.40;;;;;;4967340;28;20062;-72
2024/01/05 10:23:43;;;;;;;125.28;95.35;;;333.50;2099.20;;;;;;4976160;28;20039;-71
2024/01/05 10:26:16;;;;;;;126.97;96.55;;;333.50;2048.00;;;;;;4967414;28;20038;-72
2024/01/05 10:28:42;;;;;;;;;;;333.10;2073.60;;;;;;4967271;28;20050;-72
2024/01/05 10:31:13;;;;;;;106.72;85.70;;;333.10;2048.00;;;;;;4967267;28;19906;-73
2024/01/05 10:34:08;;;;;;;124.95;93.75;;;308.10;2048.00;;;;;;4966744;28;20027;-72
2024/01/05 10:36:34;;;;;;;101.70;69.28;;;332.90;2073.60;;;;;;4927038;29;20107;-73
2024/01/05 10:39:00;;;;;;;118.90;79.03;;;332.90;2022.40;;;;;;4927510;29;20128;-72
2024/01/05 10:41:28;;;;;;;116.43;79.18;;;333.10;2022.40;;;;;;4927765;29;20043;-72
2024/01/05 10:43:55;;;;;;;177.45;129.80;;;333.20;2073.60;;;;;;4929499;29;20027;-72
2024/01/05 10:46:22;;;;;;;177.73;135.25;;;333.40;2099.20;;;;;;4931534;29;20047;-71
2024/01/05 10:48:48;;;;;;;134.18;99.70;;;333.20;2124.80;;;;;;4931968;29;20098;-73
2024/01/05 10:51:23;;;;;;;116.93;78.18;;;333.10;2099.20;;;;;;4930963;29;20467;-72
2024/01/05 10:53:49;;;;;;;109.05;83.93;;;332.80;2099.20;;;;;;4932664;28;20103;-72
2024/01/05 10:56:19;;;;;;;110.65;85.88;;;333.20;2150.40;;;;;;5026878;28;20048;-71
2024/01/05 10:58:48;;;;;;;122.05;89.05;;;332.90;2124.80;;;;;;5028002;28;20032;-72
2024/01/05 11:01:18;;;;;;;118.88;89.03;;;333.20;2099.20;;;;;;5028117;28;20384;-73
2024/01/05 11:03:47;;;;;;;128.75;101.63;;;333.30;2124.80;;;;;;5028427;28;20033;-71
2024/01/05 11:06:14;;;;;;;110.97;79.57;;;333.40;2099.20;;;;;;5027967;28;20128;-72
2024/01/05 11:08:56;;;;;;;225.05;167.35;;;333.40;2099.20;;;;;;5028253;28;20057;-72
2024/01/05 11:11:48;;;;;;;176.23;128.40;;;333.50;2124.80;;;;;;5028054;28;20041;-72
2024/01/05 11:14:45;;;;;;;104.13;77.13;;;358.40;2124.80;;;;;;5060267;28;20028;-72
2024/01/05 11:17:51;;;;;;;71.55;53.75;;;333.60;2073.60;;;;;;5070751;28;20029;-72
2024/01/05 11:20:39;;;;;;;78.43;63.25;;;333.60;2099.20;;;;;;4988925;28;20038;-72
2024/01/05 11:23:08;;;;;;;86.15;62.35;;;333.60;2124.80;;;;;;4988998;28;20026;-73
2024/01/05 11:25:34;;;;;;;65.78;45.42;;;333.30;2124.80;;;;;;4988240;28;20038;-71
2024/01/05 11:28:01;;;;;;;53.92;37.55;;;333.30;2150.40;;;;;;4989069;28;20409;-72
2024/01/05 11:30:40;;;;;;;71.85;51.80;;;333.50;2099.20;;;;;;4988309;28;20401;-72
2024/01/05 11:33:06;;;;;;;75.57;55.92;;;333.60;2099.20;;;;;;4977440;28;20437;-72
2024/01/05 11:35:43;;;;;;;94.72;66.05;;;358.50;2073.60;;;;;;4988486;28;20114;-71
2024/01/05 11:38:26;;;;;;;94.85;67.57;;;358.70;2073.60;;;;;;4988996;28;20113;-73
2024/01/05 11:40:52;;;;;;;104.68;79.05;;;359.00;2099.20;;;;;;4988272;28;20066;-71
2024/01/05 11:43:37;;;;;;;156.23;116.95;;;359.20;2124.80;;;;;;4988074;28;20412;-72
2024/01/05 11:46:04;;;;;;;126.55;97.25;;;358.90;2124.80;;;;;;4980129;28;20119;-73
2024/01/05 11:48:36;;;;;;;146.55;106.80;;;358.70;2150.40;;;;;;4988413;28;20072;-71
2024/01/05 11:51:08;;;;;;;187.15;143.38;;;358.40;2176.00;;;;;;4988186;28;20124;-73
2024/01/05 11:53:34;;;;;;;182.27;140.75;;;358.40;2176.00;;;;;;4987718;28;20038;-72
2024/01/05 11:56:07;;;;;;;197.95;153.13;;;358.50;2201.60;;;;;;4988782;28;20126;-72